createdAt,value
2023-04-01T00:00:50.960Z,97279.81
2023-04-01T00:03:52.548Z,97272.28
2023-04-01T00:06:54.126Z,97258.44
2023-04-01T00:09:55.578Z,97260.13
2023-04-01T00:12:57.044Z,97263.53
2023-04-01T00:15:59.989Z,97260.84
2023-04-01T00:19:01.886Z,97271.09
2023-04-01T00:22:03.428Z,97267.63
2023-04-01T00:25:05.727Z,97269.38
2023-04-01T00:28:07.219Z,97264.88
2023-04-01T00:31:09.113Z,97269.44
2023-04-01T00:34:10.984Z,97253.13
2023-04-01T00:37:12.629Z,97248.88
2023-04-01T00:40:29.219Z,97245.41
2023-04-01T00:43:31.157Z,97238.56
2023-04-01T00:46:32.645Z,97243.06
2023-04-01T00:49:36.391Z,97239.06
2023-04-01T00:52:37.845Z,97241.41
2023-04-01T00:55:40.476Z,97229.50
2023-04-01T00:58:47.565Z,97232.09
2023-04-01T01:01:49.308Z,97247.69
2023-04-01T01:04:51.012Z,97245.97
2023-04-01T01:08:02.689Z,97255.94
2023-04-01T01:11:04.175Z,97260.34
2023-04-01T01:14:33.633Z,97254.25
2023-04-01T01:18:03.283Z,97241.56
2023-04-01T01:21:26.566Z,97241.59
2023-04-01T01:24:58.516Z,97241.63
2023-04-01T01:28:44.429Z,97262.44
2023-04-01T01:32:04.508Z,97264.13
2023-04-01T01:35:35.965Z,97266.00
2023-04-01T01:38:37.545Z,97257.28
2023-04-01T01:41:39.245Z,97264.53
2023-04-01T01:44:40.738Z,97259.25
2023-04-01T01:47:42.223Z,97280.72
2023-04-01T01:50:44.409Z,97272.13
2023-04-01T01:53:45.958Z,97254.88
2023-04-01T01:56:49.549Z,97258.53
2023-04-01T01:59:51.103Z,97262.72
2023-04-01T02:02:52.645Z,97255.75
2023-04-01T02:05:55.077Z,97273.28
2023-04-01T02:09:03.997Z,97270.63
2023-04-01T02:12:09.370Z,97272.31
2023-04-01T02:15:11.380Z,97262.78
2023-04-01T02:18:13.120Z,97272.38
2023-04-01T02:21:14.604Z,97257.41
2023-04-01T02:24:16.930Z,97272.13
2023-04-01T02:27:18.442Z,97259.31
2023-04-01T02:30:19.976Z,97267.19
2023-04-01T02:33:22.365Z,97253.84
2023-04-01T02:36:23.868Z,97267.81
2023-04-01T02:39:27.174Z,97268.75
2023-04-01T02:42:28.697Z,97279.22
2023-04-01T02:45:30.144Z,97261.72
2023-04-01T02:48:31.696Z,97260.72
2023-04-01T02:51:33.786Z,97257.41
2023-04-01T02:54:35.366Z,97247.94
2023-04-01T02:57:36.836Z,97256.69
2023-04-01T03:00:38.549Z,97253.25
2023-04-01T03:03:40.077Z,97254.22
2023-04-01T03:06:41.615Z,97247.31
2023-04-01T03:09:43.146Z,97240.44
2023-04-01T03:12:44.610Z,97233.41
2023-04-01T03:15:46.050Z,97234.25
2023-04-01T03:18:47.624Z,97234.19
2023-04-01T03:21:49.104Z,97230.66
2023-04-01T03:24:50.658Z,97231.34
2023-04-01T03:27:52.188Z,97245.84
2023-04-01T03:30:53.705Z,97246.06
2023-04-01T03:33:55.296Z,97230.56
2023-04-01T03:36:56.753Z,97232.13
2023-04-01T03:39:58.206Z,97223.63
2023-04-01T03:42:59.842Z,97213.16
2023-04-01T03:46:01.459Z,97216.59
2023-04-01T03:49:03.312Z,97225.81
2023-04-01T03:52:04.795Z,97225.06
2023-04-01T03:55:06.976Z,97227.66
2023-04-01T03:58:08.611Z,97227.81
2023-04-01T04:01:21.806Z,97232.06
2023-04-01T04:04:23.338Z,97236.22
2023-04-01T04:07:24.875Z,97217.41
2023-04-01T04:10:26.369Z,97220.75
2023-04-01T04:13:27.825Z,97219.81
2023-04-01T04:16:29.509Z,97221.47
2023-04-01T04:19:37.019Z,97234.53
2023-04-01T04:22:38.500Z,97227.63
2023-04-01T04:25:40.114Z,97216.59
2023-04-01T04:28:41.583Z,97233.03
2023-04-01T04:31:44.134Z,97227.84
2023-04-01T04:34:45.631Z,97244.28
2023-04-01T04:37:47.148Z,97247.63
2023-04-01T04:40:48.593Z,97256.34
2023-04-01T04:43:54.777Z,97250.25
2023-04-01T04:46:58.409Z,97261.56
2023-04-01T04:50:00.368Z,97256.38
2023-04-01T04:53:01.971Z,97254.69
2023-04-01T04:56:03.454Z,97241.78
2023-04-01T04:59:05.073Z,97229.53
2023-04-01T05:02:06.587Z,97233.09
2023-04-01T05:05:08.355Z,97235.78
2023-04-01T05:08:09.805Z,97224.28
2023-04-01T05:11:13.971Z,97225.47
2023-04-01T05:14:16.421Z,97227.22
2023-04-01T05:17:17.897Z,97215.81
2023-04-01T05:20:19.370Z,97214.00
2023-04-01T05:23:24.629Z,97213.22
2023-04-01T05:26:26.361Z,97214.06
2023-04-01T05:29:27.819Z,97214.84
2023-04-01T05:32:29.377Z,97222.81
2023-04-01T05:35:31.062Z,97213.06
2023-04-01T05:38:32.739Z,97213.16
2023-04-01T05:41:36.634Z,97223.66
2023-04-01T05:44:38.077Z,97211.56
2023-04-01T05:47:39.626Z,97210.53
2023-04-01T05:50:42.535Z,97204.53
2023-04-01T05:53:44.153Z,97202.03
2023-04-01T05:56:47.515Z,97211.66
2023-04-01T05:59:50.289Z,97199.25
2023-04-01T06:02:53.266Z,97195.81
2023-04-01T06:05:54.855Z,97172.63
2023-04-01T06:08:57.657Z,97192.31
2023-04-01T06:12:17.270Z,97191.41
2023-04-01T06:15:27.328Z,97195.81
2023-04-01T06:18:56.059Z,97193.22
2023-04-01T06:22:15.232Z,97189.69
2023-04-01T06:25:22.442Z,97176.91
2023-04-01T06:28:44.395Z,97184.25
2023-04-01T06:31:45.863Z,97176.31
2023-04-01T06:34:54.301Z,97176.41
2023-04-01T06:38:04.822Z,97180.69
2023-04-01T06:41:33.024Z,97178.91
2023-04-01T06:44:41.640Z,97171.31
2023-04-01T06:48:05.047Z,97159.25
2023-04-01T06:51:13.594Z,97168.13
2023-04-01T06:54:42.043Z,97171.47
2023-04-01T06:57:48.198Z,97153.41
2023-04-01T07:00:52.060Z,97168.88
2023-04-01T07:04:08.115Z,97150.28
2023-04-01T07:07:42.419Z,97149.59
2023-04-01T07:11:03.145Z,97149.63
2023-04-01T07:14:17.593Z,97150.41
2023-04-01T07:17:24.524Z,97147.16
2023-04-01T07:20:33.306Z,97153.69
2023-04-01T07:23:42.025Z,97148.44
2023-04-01T07:26:43.984Z,97154.97
2023-04-01T07:29:46.149Z,97142.88
2023-04-01T07:33:25.549Z,97136.91
2023-04-01T07:36:26.889Z,97153.28
2023-04-01T07:39:54.329Z,97153.13
2023-04-01T07:43:44.934Z,97157.47
2023-04-01T07:46:52.457Z,97160.31
2023-04-01T07:50:18.316Z,97150.53
2023-04-01T07:53:37.783Z,97161.94
2023-04-01T07:56:46.952Z,97159.22
2023-04-01T07:59:52.974Z,97168.88
2023-04-01T08:03:33.152Z,97160.03
2023-04-01T08:06:48.625Z,97172.31
2023-04-01T08:10:09.591Z,97174.81
2023-04-01T08:13:15.684Z,97177.56
2023-04-01T08:16:28.562Z,97168.72
2023-04-01T08:19:57.308Z,97169.72
2023-04-01T08:23:02.649Z,97164.41
2023-04-01T08:26:06.175Z,97185.47
2023-04-01T08:29:12.686Z,97188.16
2023-04-01T08:32:19.656Z,97176.91
2023-04-01T08:35:33.743Z,97184.56
2023-04-01T08:39:00.978Z,97181.94
2023-04-01T08:42:02.321Z,97171.47
2023-04-01T08:45:42.389Z,97179.47
2023-04-01T08:48:44.018Z,97183.97
2023-04-01T08:52:03.926Z,97186.50
2023-04-01T08:55:26.245Z,97179.44
2023-04-01T08:58:38.116Z,97194.25
2023-04-01T09:01:58.664Z,97192.63
2023-04-01T09:05:18.575Z,97184.75
2023-04-01T09:08:33.301Z,97202.09
2023-04-01T09:11:57.971Z,97199.53
2023-04-01T09:15:08.325Z,97212.34
2023-04-01T09:18:28.554Z,97196.88
2023-04-01T09:21:38.979Z,97208.09
2023-04-01T09:24:49.765Z,97207.25
2023-04-01T09:28:09.953Z,97207.91
2023-04-01T09:31:20.968Z,97232.09
2023-04-01T09:34:27.373Z,97214.66
2023-04-01T09:37:37.170Z,97247.47
2023-04-01T09:41:24.895Z,97232.88
2023-04-01T09:44:35.519Z,97232.00
2023-04-01T09:48:03.654Z,97230.34
2023-04-01T09:51:31.783Z,97225.97
2023-04-01T09:54:36.189Z,97225.13
2023-04-01T09:58:16.107Z,97221.72
2023-04-01T10:01:26.608Z,97227.81
2023-04-01T10:04:55.765Z,97234.66
2023-04-01T10:08:38.102Z,97222.53
2023-04-01T10:12:01.543Z,97230.19
2023-04-01T10:15:25.470Z,97228.66
2023-04-01T10:18:51.272Z,97228.44
2023-04-01T10:22:17.589Z,97238.97
2023-04-01T10:25:32.020Z,97235.50
2023-04-01T10:28:39.717Z,97234.59
2023-04-01T10:32:03.935Z,97238.25
2023-04-01T10:35:30.499Z,97240.00
2023-04-01T10:38:54.360Z,97231.28
2023-04-01T10:42:28.240Z,97236.47
2023-04-01T10:46:07.593Z,97230.41
2023-04-01T10:49:17.841Z,97237.94
2023-04-01T10:52:38.051Z,97236.25
2023-04-01T10:56:11.425Z,97249.06
2023-04-01T10:59:22.043Z,97245.06
2023-04-01T11:02:35.713Z,97236.47
2023-04-01T11:05:57.371Z,97246.94
2023-04-01T11:09:22.970Z,97237.38
2023-04-01T11:12:52.417Z,97247.72
2023-04-01T11:16:18.662Z,97245.97
2023-04-01T11:19:56.131Z,97249.63
2023-04-01T11:23:25.482Z,97236.63
2023-04-01T11:26:42.354Z,97227.16
2023-04-01T11:30:19.066Z,97230.41
2023-04-01T11:33:31.598Z,97229.69
2023-04-01T11:37:07.360Z,97225.22
2023-04-01T11:40:30.116Z,97238.25
2023-04-01T11:44:02.014Z,97243.41
2023-04-01T11:47:39.116Z,97256.19
2023-04-01T11:50:59.094Z,97260.50
2023-04-01T11:54:04.435Z,97260.63
2023-04-01T11:57:23.757Z,97259.53
2023-04-01T12:00:43.953Z,97249.22
2023-04-01T12:03:48.472Z,97274.22
2023-04-01T12:07:07.098Z,97288.84
2023-04-01T12:10:30.569Z,97285.53
2023-04-01T12:13:46.867Z,97282.88
2023-04-01T12:17:00.457Z,97272.63
2023-04-01T12:20:13.893Z,97287.38
2023-04-01T12:23:31.962Z,97281.16
2023-04-01T12:27:04.026Z,97269.09
2023-04-01T12:30:36.482Z,97278.38
2023-04-01T12:33:56.139Z,97274.13
2023-04-01T12:37:21.566Z,97282.75
2023-04-01T12:40:41.253Z,97286.22
2023-04-01T12:44:20.692Z,97293.22
2023-04-01T12:47:40.281Z,97291.34
2023-04-01T12:51:08.302Z,97293.22
2023-04-01T12:54:38.747Z,97286.94
2023-04-01T12:58:06.745Z,97287.09
2023-04-01T13:01:17.613Z,97303.50
2023-04-01T13:04:37.637Z,97293.91
2023-04-01T13:07:54.330Z,97305.16
2023-04-01T13:11:24.140Z,97304.38
2023-04-01T13:14:47.502Z,97311.19
2023-04-01T13:17:55.702Z,97300.81
2023-04-01T13:21:20.622Z,97285.72
2023-04-01T13:24:43.914Z,97294.56
2023-04-01T13:27:45.905Z,97288.53
2023-04-01T13:31:02.284Z,97276.09
2023-04-01T13:34:18.939Z,97291.06
2023-04-01T13:37:48.493Z,97286.50
2023-04-01T13:41:03.826Z,97306.50
2023-04-01T13:44:32.362Z,97299.69
2023-04-01T13:48:03.209Z,97306.66
2023-04-01T13:51:13.629Z,97301.44
2023-04-01T13:54:47.669Z,97311.59
2023-04-01T13:57:56.123Z,97314.41
2023-04-01T14:01:28.381Z,97317.69
2023-04-01T14:04:51.632Z,97316.69
2023-04-01T14:08:20.568Z,97330.47
2023-04-01T14:11:34.838Z,97329.28
2023-04-01T14:14:55.102Z,97328.50
2023-04-01T14:18:19.871Z,97331.38
2023-04-01T14:21:27.894Z,97339.47
2023-04-01T14:24:59.894Z,97336.16
2023-04-01T14:28:13.256Z,97343.09
2023-04-01T14:31:48.759Z,97334.44
2023-04-01T14:35:27.944Z,97331.72
2023-04-01T14:39:20.890Z,97341.91
2023-04-01T14:42:25.949Z,97343.75
2023-04-01T14:45:37.960Z,97343.69
2023-04-01T14:48:40.876Z,97341.94
2023-04-01T14:51:42.731Z,97341.91
2023-04-01T14:54:45.869Z,97336.00
2023-04-01T14:58:06.069Z,97339.56
2023-04-01T15:01:16.872Z,97344.00
2023-04-01T15:04:32.657Z,97342.16
2023-04-01T15:07:58.758Z,97343.66
2023-04-01T15:11:20.144Z,97336.75
2023-04-01T15:14:24.428Z,97321.13
2023-04-01T15:18:05.177Z,97321.94
2023-04-01T15:21:26.813Z,97326.41
2023-04-01T15:25:05.632Z,97315.00
2023-04-01T15:28:12.953Z,97331.47
2023-04-01T15:31:27.772Z,97325.28
2023-04-01T15:34:35.469Z,97330.00
2023-04-01T15:37:42.001Z,97334.97
2023-04-01T15:40:48.739Z,97342.06
2023-04-01T15:43:52.886Z,97338.53
2023-04-01T15:46:54.390Z,97360.25
2023-04-01T15:50:28.417Z,97329.72
2023-04-01T15:53:29.811Z,97321.56
2023-04-01T15:56:56.252Z,97310.25
2023-04-01T16:00:19.537Z,97335.13
2023-04-01T16:03:29.891Z,97312.34
2023-04-01T16:06:43.451Z,97298.63
2023-04-01T16:10:17.886Z,97298.38
2023-04-01T16:13:34.651Z,97304.28
2023-04-01T16:16:57.709Z,97305.09
2023-04-01T16:20:14.426Z,97317.03
2023-04-01T16:23:31.018Z,97321.44
2023-04-01T16:26:43.867Z,97322.25
2023-04-01T16:30:03.243Z,97317.75
2023-04-01T16:33:11.384Z,97326.69
2023-04-01T16:36:31.618Z,97351.66
2023-04-01T16:39:51.679Z,97357.78
2023-04-01T16:43:06.110Z,97370.19
2023-04-01T16:46:23.046Z,97369.25
2023-04-01T16:49:39.999Z,97355.34
2023-04-01T16:53:31.320Z,97358.09
2023-04-01T16:57:11.341Z,97344.31
2023-04-01T17:00:29.950Z,97348.66
2023-04-01T17:03:34.764Z,97351.16
2023-04-01T17:07:16.285Z,97374.06
2023-04-01T17:10:23.271Z,97393.19
2023-04-01T17:13:48.510Z,97385.28
2023-04-01T17:17:17.908Z,97403.38
2023-04-01T17:20:28.020Z,97413.94
2023-04-01T17:23:34.662Z,97423.34
2023-04-01T17:26:47.152Z,97425.22
2023-04-01T17:30:22.016Z,97426.16
2023-04-01T17:33:37.301Z,97438.28
2023-04-01T17:36:46.944Z,97447.19
2023-04-01T17:39:55.228Z,97445.59
2023-04-01T17:43:06.856Z,97445.94
2023-04-01T17:46:24.549Z,97447.69
2023-04-01T17:49:40.944Z,97457.50
2023-04-01T17:52:46.839Z,97466.63
2023-04-01T17:56:13.172Z,97467.00
2023-04-01T17:59:33.224Z,97438.41
2023-04-01T18:02:56.243Z,97416.78
2023-04-01T18:06:21.012Z,97399.34
2023-04-01T18:10:00.216Z,97392.34
2023-04-01T18:13:26.510Z,97389.78
2023-04-01T18:17:09.595Z,97385.47
2023-04-01T18:20:21.112Z,97380.16
2023-04-01T18:23:42.800Z,97374.97
2023-04-01T18:26:52.388Z,97381.94
2023-04-01T18:30:09.102Z,97374.13
2023-04-01T18:33:18.935Z,97376.75
2023-04-01T18:36:42.399Z,97378.56
2023-04-01T18:39:48.574Z,97378.84
2023-04-01T18:43:21.015Z,97369.25
2023-04-01T18:46:31.245Z,97363.00
2023-04-01T18:50:11.596Z,97373.34
2023-04-01T18:53:38.156Z,97377.78
2023-04-01T18:56:39.826Z,97368.38
2023-04-01T18:59:48.127Z,97363.31
2023-04-01T19:02:59.185Z,97368.47
2023-04-01T19:06:01.924Z,97361.59
2023-04-01T19:09:53.231Z,97376.38
2023-04-01T19:13:18.954Z,97379.78
2023-04-01T19:16:49.517Z,97380.69
2023-04-01T19:19:57.499Z,97382.41
2023-04-01T19:23:32.589Z,97380.69
2023-04-01T19:26:47.802Z,97385.03
2023-04-01T19:30:14.272Z,97383.38
2023-04-01T19:33:41.308Z,97372.00
2023-04-01T19:36:47.974Z,97367.03
2023-04-01T19:40:42.293Z,97364.34
2023-04-01T19:44:01.991Z,97360.13
2023-04-01T19:47:16.021Z,97364.44
2023-04-01T19:50:30.331Z,97375.00
2023-04-01T19:53:57.468Z,97429.47
2023-04-01T19:57:07.958Z,97433.31
2023-04-01T20:00:19.553Z,97469.69
2023-04-01T20:03:57.231Z,97474.19
2023-04-01T20:07:21.987Z,97487.13
2023-04-01T20:10:33.854Z,97496.59
2023-04-01T20:14:13.755Z,97500.06
2023-04-01T20:17:26.102Z,97506.06
2023-04-01T20:20:31.024Z,97499.97
2023-04-01T20:23:46.403Z,97506.06
2023-04-01T20:26:51.391Z,97510.34
2023-04-01T20:30:29.062Z,97517.22
2023-04-01T20:33:49.284Z,97511.25
2023-04-01T20:37:14.744Z,97489.69
2023-04-01T20:41:02.369Z,97481.06
2023-04-01T20:44:12.217Z,97484.53
2023-04-01T20:47:31.431Z,97493.19
2023-04-01T20:50:42.950Z,97500.97
2023-04-01T20:53:44.417Z,97498.38
2023-04-01T20:57:03.864Z,97496.69
2023-04-01T21:00:32.800Z,97502.75
2023-04-01T21:03:50.050Z,97501.03
2023-04-01T21:07:03.548Z,97506.13
2023-04-01T21:10:14.273Z,97503.53
2023-04-01T21:13:30.995Z,97506.16
2023-04-01T21:16:51.005Z,97504.47
2023-04-01T21:20:14.869Z,97501.84
2023-04-01T21:23:41.162Z,97503.56
2023-04-01T21:27:20.773Z,97499.19
2023-04-01T21:30:41.473Z,97503.50
2023-04-01T21:33:59.768Z,97511.34
2023-04-01T21:37:06.926Z,97508.69
2023-04-01T21:40:59.780Z,97507.84
2023-04-01T21:44:23.169Z,97515.59
2023-04-01T21:47:52.454Z,97511.22
2023-04-01T21:51:12.342Z,97508.75
2023-04-01T21:54:39.649Z,97504.38
2023-04-01T21:58:22.547Z,97503.47
2023-04-01T22:01:45.220Z,97507.75
2023-04-01T22:04:46.575Z,97505.16
2023-04-01T22:07:54.067Z,97511.22
2023-04-01T22:11:13.981Z,97511.25
2023-04-01T22:14:21.469Z,97506.91
2023-04-01T22:17:41.233Z,97506.97
2023-04-01T22:21:06.239Z,97500.91
2023-04-01T22:24:16.911Z,97511.25
2023-04-01T22:27:27.267Z,97515.56
2023-04-01T22:30:43.263Z,97517.28
2023-04-01T22:33:50.851Z,97511.22
2023-04-01T22:37:07.974Z,97517.31
2023-04-01T22:40:22.460Z,97519.91
2023-04-01T22:43:39.779Z,97516.38
2023-04-01T22:47:15.944Z,97520.72
2023-04-01T22:50:23.022Z,97523.34
2023-04-01T22:53:28.351Z,97527.66
2023-04-01T22:57:14.815Z,97527.69
2023-04-01T23:00:22.752Z,97522.53
2023-04-01T23:03:30.144Z,97525.91
2023-04-01T23:06:39.388Z,97526.81
2023-04-01T23:09:40.938Z,97523.38
2023-04-01T23:12:42.465Z,97538.06
2023-04-01T23:15:43.980Z,97535.50
2023-04-01T23:19:03.399Z,97544.13
2023-04-01T23:22:26.862Z,97532.91
2023-04-01T23:25:37.022Z,97542.47
2023-04-01T23:28:52.452Z,97542.44
2023-04-01T23:32:01.057Z,97543.28
2023-04-01T23:35:02.564Z,97546.69
2023-04-01T23:38:04.115Z,97541.53
2023-04-01T23:41:05.678Z,97540.69
2023-04-01T23:44:12.423Z,97541.50
2023-04-01T23:47:17.692Z,97539.78
2023-04-01T23:50:21.372Z,97546.72
2023-04-01T23:53:25.744Z,97551.97
2023-04-01T23:56:35.817Z,97548.50
2023-04-01T23:59:37.345Z,97555.47
